This is the latest recevied weather packets stored in our database for station/object KY0TEQ-13. If no packets are shown the sender has not sent any weather packets the latest 10 day(s).
| Time | Temp. | Humidity | Pressure | Rain* | Wind** | Luminosity | Snow |
|---|---|---|---|---|---|---|---|
| 1787971044 | 21.67° C | 35% | 1309.1 hPa | 0 mm | - | 0 W/m² | - |
| 1787970743 | 21.11° C | 37% | 1309.3 hPa | 0 mm | - | 0 W/m² | - |
| 1787970443 | 21.67° C | 36% | 1309 hPa | 0 mm | - | 0 W/m² | - |
| 1787970142 | 23.89° C | 33% | 1309.1 hPa | 0 mm | - | 0 W/m² | - |
| 1787969841 | 23.33° C | 30% | 1309.1 hPa | 0 mm | - | 0 W/m² | - |
| 1787969541 | 23.33° C | 32% | 1309 hPa | 0 mm | - | 0 W/m² | - |
| 1787969235 | 22.78° C | 32% | 1309 hPa | 0 mm | - | 0 W/m² | - |
| 1787968934 | 22.78° C | 34% | 1309 hPa | 0 mm | - | 0 W/m² | - |
| 1787968629 | 22.78° C | 33% | 1308.8 hPa | 0 mm | - | 0 W/m² | - |
| 1787968324 | 22.78° C | 34% | 1308.9 hPa | 0 mm | - | 1 W/m² | - |
| 1787968019 | 22.78° C | 34% | 1308.9 hPa | 0 mm | - | 2 W/m² | - |
| 1787967717 | 23.89° C | 34% | 1308.9 hPa | 0 mm | - | 4 W/m² | - |
| 1787967416 | 24.44° C | 32% | 1308.6 hPa | 0 mm | - | 7 W/m² | - |
| 1787967110 | 25° C | 31% | 1308.8 hPa | 0 mm | - | 10 W/m² | - |
| 1787966807 | 25.56° C | 28% | 1308.6 hPa | 0 mm | - | 14 W/m² | - |
| 1787966502 | 26.11° C | 27% | 1308.3 hPa | 0 mm | - | 17 W/m² | - |
| 1787966196 | 26.11° C | 27% | 1308.8 hPa | 0 mm | - | 21 W/m² | - |
| 1787965891 | 26.11° C | 27% | 1308.6 hPa | 0 mm | - | 24 W/m² | - |
| 1787965586 | 26.11° C | 27% | 1308.8 hPa | 0 mm | - | 28 W/m² | - |
| 1787965281 | 26.67° C | 28% | 1308.8 hPa | 0 mm | - | 32 W/m² | - |
| 1787964975 | 28.33° C | 25% | 1308.8 hPa | 0 mm | - | 38 W/m² | - |
| 1787964675 | 28.89° C | 22% | 1309 hPa | 0 mm | - | 43 W/m² | - |
| 1787964374 | 28.89° C | 21% | 1308.8 hPa | 0 mm | - | 53 W/m² | - |
| 1787964074 | 28.89° C | 21% | 1308.8 hPa | 0 mm | - | 52 W/m² | - |
| 1787963769 | 29.44° C | 21% | 1308.8 hPa | 0 mm | - | 54 W/m² | - |
* Rain latest hour (hover to see other rain measurements)
** Current wind speed in m/s (hover to see current wind gust speed)